Malabar, Florida
Current Conditions -  °F | °C
As of 2:53 PM on Thursday 30 Oct 2014 (Local Time) from KMLB Reporting Station
Scattered Clouds Scattered Clouds  
Wind Chill: 82°   Ceiling: Unl
Heat Index: 84°   Visibility: 10mi
Dew Point: 65°   Wind: 10mph
Humidity: 56%   Direction: 80°E
Pressure: 29.89"   Gusts: NA
Location:  28°N, 80.57°W
Report Text: KMLB 301853Z 08009KT 10SM SCT045 28/18 A2989 RMK AO2 SLP120 T02780183
Loading
Personal Weather Stations






























Interactive Weather Map
Tropical Storm Tracking
New forecast layout! Learn more

10-Day Weather Forecast

Advertisements
Track Severe Weather on mobile